createdAt,value
2018-12-02T00:03:09.884Z,3.30
2018-12-02T00:08:13.728Z,7.30
2018-12-02T00:13:17.353Z,10.70
2018-12-02T00:18:20.884Z,6.53
2018-12-02T00:23:24.482Z,8.20
2018-12-02T00:28:28.008Z,8.00
2018-12-02T00:33:31.603Z,5.80
2018-12-02T00:38:35.701Z,7.57
2018-12-02T00:43:39.549Z,14.13
2018-12-02T00:48:43.307Z,7.27
2018-12-02T00:53:47.399Z,7.70
2018-12-02T00:58:51.144Z,7.23
2018-12-02T01:03:54.981Z,7.60
2018-12-02T01:08:59.987Z,7.90
2018-12-02T01:14:04.397Z,28.90
2018-12-02T01:19:07.992Z,10.20
2018-12-02T01:24:11.828Z,6.77
2018-12-02T01:29:30.449Z,7.83
2018-12-02T01:34:34.333Z,7.03
2018-12-02T01:39:38.080Z,10.20
2018-12-02T01:44:41.587Z,5.40
2018-12-02T01:49:45.100Z,6.27
2018-12-02T01:54:48.661Z,7.60
2018-12-02T01:59:52.572Z,7.97
2018-12-02T02:04:56.112Z,8.57
2018-12-02T02:10:00.393Z,6.93
2018-12-02T02:15:05.300Z,9.33
2018-12-02T02:20:12.897Z,6.20
2018-12-02T02:25:17.540Z,11.53
2018-12-02T02:30:23.358Z,9.37
2018-12-02T02:35:42.161Z,13.43
2018-12-02T02:40:45.869Z,9.87
2018-12-02T02:45:54.952Z,11.00
2018-12-02T02:50:59.053Z,6.47
2018-12-02T02:56:02.814Z,7.77
2018-12-02T03:01:07.044Z,4.80
2018-12-02T03:06:11.070Z,9.33
2018-12-02T03:11:15.417Z,7.73
2018-12-02T03:16:20.701Z,10.27
2018-12-02T03:21:24.745Z,7.80
2018-12-02T03:26:28.480Z,10.47
2018-12-02T03:31:32.573Z,6.50
2018-12-02T03:36:36.606Z,7.80
2018-12-02T03:41:40.389Z,6.37
2018-12-02T03:46:44.286Z,5.90
2018-12-02T03:51:48.453Z,10.03
2018-12-02T03:56:52.547Z,10.53
2018-12-02T04:07:08.377Z,6.10
2018-12-02T04:12:23.602Z,10.83
2018-12-02T04:17:32.858Z,8.20
2018-12-02T04:22:39.181Z,9.50
2018-12-02T04:27:46.630Z,8.13
2018-12-02T04:32:51.148Z,9.77
2018-12-02T04:37:55.690Z,8.67
2018-12-02T04:43:00.171Z,8.07
2018-12-02T04:48:04.357Z,10.50
2018-12-02T04:53:08.740Z,11.90
2018-12-02T04:58:12.768Z,7.73
2018-12-02T05:03:17.217Z,12.33
2018-12-02T05:08:23.897Z,12.40
2018-12-02T05:13:27.824Z,11.83
2018-12-02T05:18:36.133Z,10.27
2018-12-02T05:23:40.612Z,8.93
2018-12-02T05:28:49.827Z,12.30
2018-12-02T05:33:58.684Z,10.60
2018-12-02T05:39:03.580Z,11.50
2018-12-02T05:44:07.177Z,10.43
2018-12-02T05:49:11.308Z,10.50
2018-12-02T05:54:15.080Z,12.73
2018-12-02T05:59:18.881Z,9.00
2018-12-02T06:04:22.725Z,6.47
2018-12-02T06:09:26.525Z,7.50
2018-12-02T06:14:30.628Z,8.37
2018-12-02T06:19:34.713Z,10.90
2018-12-02T06:24:38.739Z,11.93
2018-12-02T06:29:42.488Z,11.03
2018-12-02T06:34:47.642Z,12.00
2018-12-02T06:39:51.566Z,10.83
2018-12-02T06:44:57.189Z,10.87
2018-12-02T06:50:09.804Z,10.47
2018-12-02T06:55:38.280Z,10.67
2018-12-02T07:01:06.081Z,11.00
2018-12-02T07:06:10.044Z,7.30
2018-12-02T07:11:14.104Z,8.30
2018-12-02T07:16:18.563Z,6.97
2018-12-02T07:21:25.865Z,6.57
2018-12-02T07:26:31.904Z,7.20
2018-12-02T07:31:35.974Z,8.93
2018-12-02T07:36:39.804Z,8.03
2018-12-02T07:41:45.256Z,9.23
2018-12-02T07:46:49.753Z,9.00
2018-12-02T07:51:54.640Z,5.93
2018-12-02T07:56:58.430Z,7.30
2018-12-02T08:02:02.546Z,6.70
2018-12-02T08:07:06.524Z,6.10
2018-12-02T08:12:09.996Z,7.43
2018-12-02T08:17:39.211Z,10.03
2018-12-02T08:22:43.492Z,4.27
2018-12-02T08:27:47.323Z,6.93
2018-12-02T08:32:50.888Z,9.57
2018-12-02T08:37:56.441Z,10.20
2018-12-02T08:42:59.907Z,9.00
2018-12-02T08:48:13.444Z,15.77
2018-12-02T08:53:16.980Z,9.83
2018-12-02T08:58:21.028Z,12.83
2018-12-02T09:03:24.568Z,11.90
2018-12-02T09:08:31.979Z,8.70
2018-12-02T09:13:36.629Z,12.70
2018-12-02T09:18:40.701Z,12.13
2018-12-02T09:23:47.397Z,16.57
2018-12-02T09:28:48.171Z,12.40
2018-12-02T09:33:52.422Z,13.17
2018-12-02T09:38:56.023Z,11.97
2018-12-02T09:43:59.515Z,13.20
2018-12-02T09:49:03.252Z,15.43
2018-12-02T09:54:06.815Z,16.70
2018-12-02T09:59:10.538Z,14.03
2018-12-02T10:04:14.509Z,12.23
2018-12-02T10:09:18.164Z,12.10
2018-12-02T10:14:21.724Z,13.37
2018-12-02T10:19:25.604Z,11.83
2018-12-02T10:24:29.191Z,12.50
2018-12-02T10:29:32.739Z,11.27
2018-12-02T10:34:36.350Z,14.57
2018-12-02T10:39:42.029Z,11.37
2018-12-02T10:44:47.495Z,12.77
2018-12-02T10:49:51.182Z,11.30
2018-12-02T10:54:55.522Z,9.03
2018-12-02T10:59:59.126Z,11.57
2018-12-02T11:05:03.050Z,10.30
2018-12-02T11:10:07.343Z,9.60
2018-12-02T11:15:14.804Z,9.70
2018-12-02T11:20:22.543Z,10.40
2018-12-02T11:25:26.473Z,10.60
2018-12-02T11:30:30.057Z,8.93
2018-12-02T11:35:33.666Z,10.77
2018-12-02T11:40:38.143Z,10.30
2018-12-02T11:45:43.782Z,13.43
2018-12-02T11:50:47.453Z,10.20
2018-12-02T11:55:53.976Z,12.00
2018-12-02T12:00:59.960Z,9.87
2018-12-02T12:06:05.469Z,10.17
2018-12-02T12:11:09.542Z,14.40
2018-12-02T12:16:13.856Z,7.00
2018-12-02T12:21:18.245Z,12.67
2018-12-02T12:26:22.546Z,10.10
2018-12-02T12:31:30.628Z,9.10
2018-12-02T12:36:35.079Z,7.53
2018-12-02T12:41:39.469Z,11.10
2018-12-02T12:46:45.953Z,12.10
2018-12-02T12:51:49.943Z,9.90
2018-12-02T12:56:54.076Z,10.03
2018-12-02T13:01:57.809Z,10.67
2018-12-02T13:07:01.802Z,9.57
2018-12-02T13:12:07.802Z,8.03
2018-12-02T13:17:11.678Z,9.80
2018-12-02T13:22:15.449Z,9.57
2018-12-02T13:27:19.387Z,9.90
2018-12-02T13:32:23.032Z,12.60
2018-12-02T13:37:26.652Z,9.17
2018-12-02T13:42:31.943Z,8.60
2018-12-02T13:47:35.658Z,5.13
2018-12-02T13:52:39.981Z,6.70
2018-12-02T13:57:43.788Z,7.17
2018-12-02T14:02:49.004Z,8.33
2018-12-02T14:07:52.983Z,5.10
2018-12-02T14:12:59.639Z,6.80
2018-12-02T14:18:11.087Z,3.93
2018-12-02T14:23:15.060Z,5.03
2018-12-02T14:28:24.964Z,6.90
2018-12-02T14:33:29.310Z,5.27
2018-12-02T14:38:34.041Z,5.20
2018-12-02T14:43:38.425Z,4.60
2018-12-02T14:48:43.738Z,5.27
2018-12-02T14:53:49.008Z,5.00
2018-12-02T14:58:54.106Z,4.27
2018-12-02T15:03:59.081Z,3.20
2018-12-02T15:09:04.965Z,3.33
2018-12-02T15:14:11.250Z,4.47
2018-12-02T15:19:16.291Z,4.53
2018-12-02T15:24:21.304Z,4.37
2018-12-02T15:29:25.481Z,4.57
2018-12-02T15:34:33.244Z,4.27
2018-12-02T15:39:38.772Z,5.73
2018-12-02T15:44:43.428Z,5.20
2018-12-02T15:55:00.087Z,4.60
2018-12-02T16:00:12.576Z,4.63
2018-12-02T16:05:17.727Z,8.00
2018-12-02T16:10:22.361Z,11.93
2018-12-02T16:15:28.698Z,8.40
2018-12-02T16:20:39.002Z,14.10
2018-12-02T16:25:44.489Z,19.10
2018-12-02T16:30:56.940Z,25.73
2018-12-02T16:36:02.646Z,19.93
2018-12-02T16:41:07.718Z,30.80
2018-12-02T16:46:13.232Z,26.07
2018-12-02T16:51:19.265Z,26.13
2018-12-02T16:56:23.690Z,25.60
2018-12-02T17:01:34.296Z,30.73
2018-12-02T17:06:41.737Z,27.50
2018-12-02T17:11:49.555Z,15.77
2018-12-02T17:16:53.478Z,22.60
2018-12-02T17:21:58.413Z,23.10
2018-12-02T17:27:04.579Z,20.77
2018-12-02T17:32:14.414Z,19.40
2018-12-02T17:37:27.570Z,16.27
2018-12-02T17:42:33.791Z,17.30
2018-12-02T17:47:39.680Z,17.27
2018-12-02T17:52:47.351Z,16.10
2018-12-02T17:57:53.139Z,13.03
2018-12-02T18:03:00.281Z,15.90
2018-12-02T18:08:05.273Z,8.40
2018-12-02T18:13:11.129Z,7.07
2018-12-02T18:18:15.853Z,9.17
2018-12-02T18:23:21.021Z,6.97
2018-12-02T18:28:26.291Z,8.40
2018-12-02T18:33:34.402Z,11.53
2018-12-02T18:38:42.208Z,9.53
2018-12-02T18:43:47.681Z,8.83
2018-12-02T18:48:53.985Z,10.10
2018-12-02T18:54:00.111Z,11.47
2018-12-02T18:59:07.618Z,11.53
2018-12-02T19:04:13.400Z,8.77
2018-12-02T19:09:19.241Z,11.43
2018-12-02T19:14:28.180Z,11.17
2018-12-02T19:19:32.936Z,11.60
2018-12-02T19:24:37.857Z,9.17
2018-12-02T19:29:43.270Z,11.57
2018-12-02T19:34:48.330Z,12.50
2018-12-02T19:39:52.596Z,14.33
2018-12-02T19:44:57.364Z,11.17
2018-12-02T19:50:02.442Z,10.40
2018-12-02T19:55:09.758Z,10.17
2018-12-02T20:00:27.485Z,10.80
2018-12-02T20:05:35.135Z,7.00
2018-12-02T20:10:41.663Z,7.13
2018-12-02T20:15:51.926Z,9.17
2018-12-02T20:20:59.262Z,10.20
2018-12-02T20:26:06.260Z,8.90
2018-12-02T20:31:24.698Z,9.93
2018-12-02T20:36:32.775Z,10.50
2018-12-02T20:41:39.416Z,11.00
2018-12-02T20:46:45.496Z,11.13
2018-12-02T20:51:50.205Z,10.33
2018-12-02T20:56:54.232Z,11.30
2018-12-02T21:01:58.151Z,10.00
2018-12-02T21:07:02.389Z,7.80
2018-12-02T21:12:07.847Z,9.20
2018-12-02T21:17:12.363Z,8.30
2018-12-02T21:22:19.651Z,8.57
2018-12-02T21:27:23.603Z,7.30
2018-12-02T21:32:31.506Z,6.90
2018-12-02T21:37:36.606Z,8.03
2018-12-02T21:42:41.122Z,8.07
2018-12-02T21:47:48.153Z,7.10
2018-12-02T21:52:52.954Z,7.37
2018-12-02T21:57:58.064Z,5.77
2018-12-02T22:03:02.201Z,7.60
2018-12-02T22:08:06.646Z,5.23
2018-12-02T22:13:10.396Z,7.00
2018-12-02T22:18:14.902Z,5.07
2018-12-02T22:23:18.670Z,4.07
2018-12-02T22:28:22.404Z,5.63
2018-12-02T22:33:26.243Z,6.03
2018-12-02T22:38:30.183Z,4.03
2018-12-02T22:43:33.752Z,6.90
2018-12-02T22:48:38.029Z,5.50
2018-12-02T22:53:42.037Z,4.97
2018-12-02T22:58:45.644Z,4.53
2018-12-02T23:03:49.236Z,5.73
2018-12-02T23:08:52.971Z,9.80
2018-12-02T23:14:03.618Z,11.50
2018-12-02T23:19:13.396Z,14.77
2018-12-02T23:24:17.978Z,13.60
2018-12-02T23:29:21.528Z,22.50
2018-12-02T23:34:26.677Z,23.10
2018-12-02T23:39:30.920Z,28.13
2018-12-02T23:44:34.862Z,21.63
2018-12-02T23:49:39.511Z,22.90
2018-12-02T23:54:43.921Z,19.10
2018-12-02T23:59:47.706Z,19.63
